Tropical Cyclones
[Index]
Main Index Home Page Stock Weather Photos Extreme Storms Discussion Storm News and Storm Chasing Reports Tropical Cyclones / Hurricanes / Typhoons Weather Data and Links Wild Fires / Bushfires Weather Observation Techniques Weather Picture Catalogue Tornado Pictures and Reports Stock Video Footage and DVDs for sale
Season 2006-2007 Tropical Cyclone CLIFF Track Map
Season 2006-2007 Summaries: [BoM-AU] [JTWC-AU] [JTWC-SIO] [JTWC-SPAC] [JTWC-SH]
<<- Previous TC | JTWC 2006-2007 Season | Next TC ->>

click for intensity scale information  Lat/long Grid: Show Hide

 Date Labels: Show Hide

Joint Typhoon Warning Centre Cyclone Data

Name: CLIFF

02 Apr 2007 18:00 UTC to 06 Apr 2007 18:00 UTC

    date/time    lat    long     hPa   cat  kts
2007-04-02 18   13.6   177.0    1006         15          
2007-04-03 00   14.2   176.8    1006         15          
2007-04-03 06   14.5   177.1    1006         15          
2007-04-03 12   14.7   177.8    1004         20          
2007-04-03 18   15.2   178.6    1002         25          
2007-04-04 00   16.3   179.4    1000         30          
2007-04-04 06   17.0   179.5W    996         35          
2007-04-04 12   17.9   178.7W    989    1    45          
2007-04-04 18   18.9   178.1W    989    1    45          
2007-04-05 00   20.0   177.6W    989    1    45          
2007-04-05 06   21.1   177.1W    985    1    50          
2007-04-05 12   22.3   176.2W    982    2    55          
2007-04-05 12   22.3   176.2W    982    2    55          
2007-04-05 18   23.5   175.1W    985    1    50          
2007-04-05 18   23.5   175.1W    985    1    50          
2007-04-06 00   24.9   173.9W    991    1    45          
2007-04-06 06   26.0   171.8W    993    1    40          
2007-04-06 12   27.4   169.9W    997         35          
2007-04-06 18   28.0   167.1W    997         35          
Winds are 1-min average.

Tropical cyclone tracks developed by Michael Bath using data from the Joint Typhoon Warning Centre Best Tracks and Google Maps.


[Australian Severe Weather index] [Copyright Notice] [Email Contacts] [Search This Site] [Privacy Policy]
Document: tropical_cyclone_cliff.htm Updated: 28 June 2017